createdAt,value
2018-12-24T00:00:34.430Z,-3.00
2018-12-24T00:03:37.580Z,-3.00
2018-12-24T00:06:40.584Z,-3.10
2018-12-24T00:09:43.587Z,-3.10
2018-12-24T00:12:46.783Z,-3.10
2018-12-24T00:15:49.748Z,-3.10
2018-12-24T00:18:52.648Z,-3.20
2018-12-24T00:21:55.621Z,-3.20
2018-12-24T00:24:58.514Z,-3.20
2018-12-24T00:28:01.447Z,-3.30
2018-12-24T00:31:04.354Z,-3.30
2018-12-24T00:34:07.392Z,-3.30
2018-12-24T00:37:10.312Z,-3.30
2018-12-24T00:40:13.280Z,-3.30
2018-12-24T00:43:16.211Z,-3.30
2018-12-24T00:46:19.134Z,-3.30
2018-12-24T00:49:22.122Z,-3.30
2018-12-24T00:52:25.175Z,-3.30
2018-12-24T00:55:28.105Z,-3.30
2018-12-24T00:58:31.234Z,-3.30
2018-12-24T01:01:34.144Z,-3.30
2018-12-24T01:04:37.240Z,-3.30
2018-12-24T01:07:40.168Z,-3.40
2018-12-24T01:10:43.959Z,-3.40
2018-12-24T01:13:47.997Z,-3.40
2018-12-24T01:16:50.988Z,-3.40
2018-12-24T01:19:54.046Z,-3.40
2018-12-24T01:22:56.984Z,-3.40
2018-12-24T01:25:59.988Z,-3.40
2018-12-24T01:29:02.970Z,-3.40
2018-12-24T01:32:05.954Z,-3.40
2018-12-24T01:35:08.962Z,-3.40
2018-12-24T01:38:11.900Z,-3.50
2018-12-24T01:41:14.893Z,-3.50
2018-12-24T01:44:17.820Z,-3.50
2018-12-24T01:47:20.803Z,-3.50
2018-12-24T01:50:23.727Z,-3.50
2018-12-24T01:53:26.802Z,-3.50
2018-12-24T01:56:29.830Z,-3.50
2018-12-24T01:59:32.797Z,-3.50
2018-12-24T02:02:35.712Z,-3.50
2018-12-24T02:05:38.728Z,-3.60
2018-12-24T02:08:41.664Z,-3.60
2018-12-24T02:11:44.599Z,-3.60
2018-12-24T02:14:47.546Z,-3.60
2018-12-24T02:17:50.536Z,-3.60
2018-12-24T02:20:54.512Z,-3.60
2018-12-24T02:23:57.436Z,-3.70
2018-12-24T02:27:00.388Z,-3.70
2018-12-24T02:30:03.412Z,-3.70
2018-12-24T02:33:06.380Z,-3.70
2018-12-24T02:36:09.306Z,-3.70
2018-12-24T02:39:12.399Z,-3.80
2018-12-24T02:42:15.304Z,-3.80
2018-12-24T02:45:18.367Z,-3.90
2018-12-24T02:48:21.417Z,-4.00
2018-12-24T02:51:24.436Z,-4.00
2018-12-24T02:54:27.387Z,-4.10
2018-12-24T02:57:30.358Z,-4.10
2018-12-24T03:00:33.292Z,-4.10
2018-12-24T03:03:36.320Z,-4.10
2018-12-24T03:06:39.302Z,-4.10
2018-12-24T03:09:42.372Z,-4.10
2018-12-24T03:12:45.376Z,-4.10
2018-12-24T03:15:48.291Z,-4.10
2018-12-24T03:18:51.229Z,-4.10
2018-12-24T03:21:54.204Z,-4.10
2018-12-24T03:24:57.295Z,-4.10
2018-12-24T03:28:00.279Z,-4.10
2018-12-24T03:31:05.609Z,-4.10
2018-12-24T03:34:08.715Z,-4.10
2018-12-24T03:37:11.729Z,-4.10
2018-12-24T03:40:14.658Z,-4.10
2018-12-24T03:43:19.104Z,-4.10
2018-12-24T03:46:22.035Z,-4.10
2018-12-24T03:49:24.991Z,-4.20
2018-12-24T03:52:27.912Z,-4.20
2018-12-24T03:55:30.860Z,-4.20
2018-12-24T03:58:33.784Z,-4.20
2018-12-24T04:01:36.745Z,-4.30
2018-12-24T04:04:39.746Z,-4.30
2018-12-24T04:07:42.814Z,-4.30
2018-12-24T04:10:45.784Z,-4.30
2018-12-24T04:13:54.505Z,-4.20
2018-12-24T04:16:57.432Z,-4.20
2018-12-24T04:20:00.349Z,-4.20
2018-12-24T04:23:03.505Z,-4.10
2018-12-24T04:26:06.452Z,-4.10
2018-12-24T04:29:09.539Z,-4.10
2018-12-24T04:32:12.566Z,-4.10
2018-12-24T04:35:15.576Z,-4.10
2018-12-24T04:38:18.522Z,-4.10
2018-12-24T04:41:21.630Z,-4.20
2018-12-24T04:44:24.536Z,-4.20
2018-12-24T04:47:27.498Z,-4.30
2018-12-24T04:50:30.468Z,-4.30
2018-12-24T04:53:33.571Z,-4.30
2018-12-24T04:56:36.573Z,-4.40
2018-12-24T04:59:39.583Z,-4.40
2018-12-24T05:02:42.560Z,-4.40
2018-12-24T05:05:45.700Z,-4.40
2018-12-24T05:08:48.672Z,-4.40
2018-12-24T05:11:52.714Z,-4.40
2018-12-24T05:14:55.601Z,-4.40
2018-12-24T05:17:58.610Z,-4.40
2018-12-24T05:21:01.537Z,-4.50
2018-12-24T05:24:04.736Z,-4.50
2018-12-24T05:27:07.647Z,-4.50
2018-12-24T05:30:10.931Z,-4.50
2018-12-24T05:33:13.972Z,-4.40
2018-12-24T05:36:17.058Z,-4.40
2018-12-24T05:39:19.975Z,-4.40
2018-12-24T05:42:22.998Z,-4.40
2018-12-24T05:45:26.082Z,-4.40
2018-12-24T05:48:29.028Z,-4.40
2018-12-24T05:51:31.966Z,-4.40
2018-12-24T05:54:34.999Z,-4.40
2018-12-24T05:57:37.978Z,-4.30
2018-12-24T06:00:40.933Z,-4.30
2018-12-24T06:03:43.883Z,-4.20
2018-12-24T06:06:46.848Z,-4.10
2018-12-24T06:09:49.828Z,-4.00
2018-12-24T06:12:52.757Z,-3.90
2018-12-24T06:15:58.508Z,-3.80
2018-12-24T06:19:01.504Z,-3.70
2018-12-24T06:22:05.014Z,-3.60
2018-12-24T06:25:08.036Z,-3.40
2018-12-24T06:28:10.973Z,-3.20
2018-12-24T06:31:13.904Z,-3.00
2018-12-24T06:34:16.922Z,-2.90
2018-12-24T06:37:19.904Z,-2.70
2018-12-24T06:40:22.871Z,-2.70
2018-12-24T06:43:25.827Z,-2.60
2018-12-24T06:46:28.743Z,-2.50
2018-12-24T06:49:31.661Z,-2.50
2018-12-24T06:52:34.663Z,-2.40
2018-12-24T06:55:37.655Z,-2.40
2018-12-24T06:58:40.742Z,-2.30
2018-12-24T07:01:43.907Z,-2.30
2018-12-24T07:04:46.855Z,-2.40
2018-12-24T07:07:49.796Z,-2.30
2018-12-24T07:10:52.830Z,-2.30
2018-12-24T07:13:55.870Z,-2.40
2018-12-24T07:16:58.986Z,-2.30
2018-12-24T07:20:02.123Z,-2.20
2018-12-24T07:23:05.184Z,-2.20
2018-12-24T07:26:09.076Z,-2.10
2018-12-24T07:29:12.400Z,-2.00
2018-12-24T07:32:15.328Z,-2.00
2018-12-24T07:35:18.311Z,-1.90
2018-12-24T07:38:21.200Z,-1.90
2018-12-24T07:41:24.204Z,-1.80
2018-12-24T07:44:27.118Z,-1.80
2018-12-24T07:47:30.093Z,-1.90
2018-12-24T07:50:33.117Z,-1.90
2018-12-24T07:53:36.136Z,-1.80
2018-12-24T07:56:39.149Z,-1.80
2018-12-24T07:59:42.166Z,-1.70
2018-12-24T08:02:45.146Z,-1.70
2018-12-24T08:05:48.172Z,-1.60
2018-12-24T08:08:51.109Z,-1.60
2018-12-24T08:11:54.008Z,-1.60
2018-12-24T08:14:57.080Z,-1.60
2018-12-24T08:17:59.986Z,-1.50
2018-12-24T08:21:02.916Z,-1.40
2018-12-24T08:24:05.904Z,-1.40
2018-12-24T08:27:08.815Z,-1.40
2018-12-24T08:30:11.770Z,-1.40
2018-12-24T08:33:14.824Z,-1.40
2018-12-24T08:36:17.734Z,-1.30
2018-12-24T08:39:20.704Z,-1.20
2018-12-24T08:42:23.707Z,-1.10
2018-12-24T08:45:26.721Z,-1.00
2018-12-24T08:48:29.671Z,-0.90
2018-12-24T08:51:35.474Z,-0.90
2018-12-24T08:54:38.483Z,-0.90
2018-12-24T08:57:41.464Z,-0.70
2018-12-24T09:00:44.593Z,-0.70
2018-12-24T09:03:47.592Z,-0.60
2018-12-24T09:06:50.633Z,-0.60
2018-12-24T09:09:53.651Z,-0.60
2018-12-24T09:12:56.599Z,-0.60
2018-12-24T09:15:59.542Z,-0.60
2018-12-24T09:19:02.971Z,-0.60
2018-12-24T09:22:05.962Z,-0.60
2018-12-24T09:25:08.949Z,-0.60
2018-12-24T09:28:11.861Z,-0.70
2018-12-24T09:31:14.921Z,-0.60
2018-12-24T09:34:17.840Z,-0.70
2018-12-24T09:37:20.805Z,-0.70
2018-12-24T09:40:23.837Z,-0.70
2018-12-24T09:43:27.499Z,-0.60
2018-12-24T09:46:30.438Z,-0.50
2018-12-24T09:49:33.466Z,-0.50
2018-12-24T09:52:36.394Z,-0.40
2018-12-24T09:55:39.292Z,-0.30
2018-12-24T09:58:42.247Z,-0.30
2018-12-24T10:01:45.162Z,-0.30
2018-12-24T10:04:52.916Z,-0.20
2018-12-24T10:07:56.458Z,-0.10
2018-12-24T10:10:59.439Z,-0.10
2018-12-24T10:14:02.461Z,-0.10
2018-12-24T10:17:06.218Z,-0.10
2018-12-24T10:20:09.157Z,-0.20
2018-12-24T10:23:12.136Z,-0.20
2018-12-24T10:26:15.072Z,-0.20
2018-12-24T10:29:19.612Z,-0.10
2018-12-24T10:32:22.766Z,0.00
2018-12-24T10:35:25.826Z,0.10
2018-12-24T10:38:28.839Z,0.20
2018-12-24T10:41:31.887Z,0.20
2018-12-24T10:44:34.893Z,0.20
2018-12-24T10:47:37.825Z,0.20
2018-12-24T10:50:40.758Z,0.20
2018-12-24T10:53:44.799Z,0.20
2018-12-24T10:56:47.700Z,0.20
2018-12-24T10:59:50.648Z,0.20
2018-12-24T11:02:53.662Z,0.20
2018-12-24T11:05:56.664Z,0.20
2018-12-24T11:08:59.602Z,0.20
2018-12-24T11:12:04.000Z,0.20
2018-12-24T11:15:08.811Z,0.20
2018-12-24T11:18:11.890Z,0.20
2018-12-24T11:21:14.914Z,0.30
2018-12-24T11:24:18.052Z,0.30
2018-12-24T11:27:21.085Z,0.40
2018-12-24T11:30:25.420Z,0.40
2018-12-24T11:33:28.376Z,0.40
2018-12-24T11:36:31.339Z,0.50
2018-12-24T11:39:34.254Z,0.60
2018-12-24T11:42:37.336Z,0.60
2018-12-24T11:45:40.280Z,0.60
2018-12-24T11:48:43.248Z,0.60
2018-12-24T11:52:29.689Z,0.60
2018-12-24T11:55:32.282Z,0.60
2018-12-24T11:58:34.778Z,0.70
2018-12-24T12:01:37.272Z,0.90
2018-12-24T12:04:40.902Z,1.10
2018-12-24T12:07:43.344Z,1.20
2018-12-24T12:10:45.872Z,1.40
2018-12-24T12:13:48.337Z,1.40
2018-12-24T12:16:50.855Z,1.40
2018-12-24T12:19:53.363Z,1.30
2018-12-24T12:22:55.883Z,1.20
2018-12-24T12:25:58.354Z,1.20
2018-12-24T12:29:00.898Z,1.10
2018-12-24T12:32:03.367Z,1.10
2018-12-24T12:35:05.884Z,1.00
2018-12-24T12:38:08.422Z,0.90
2018-12-24T12:41:10.943Z,0.90
2018-12-24T12:44:13.391Z,0.90
2018-12-24T12:47:15.970Z,1.00
2018-12-24T12:50:18.485Z,1.00
2018-12-24T12:53:20.985Z,1.10
2018-12-24T12:56:23.630Z,1.10
2018-12-24T12:59:26.128Z,1.10
2018-12-24T13:02:28.627Z,1.20
2018-12-24T13:05:31.133Z,1.20
2018-12-24T13:08:33.829Z,1.20
2018-12-24T13:11:36.318Z,1.20
2018-12-24T13:14:38.767Z,1.20
2018-12-24T13:17:41.239Z,1.20
2018-12-24T13:20:44.725Z,1.40
2018-12-24T13:23:47.240Z,2.00
2018-12-24T13:26:49.728Z,2.30
2018-12-24T13:29:52.221Z,2.20
2018-12-24T13:32:54.672Z,2.10
2018-12-24T13:35:57.225Z,2.00
2018-12-24T13:38:59.793Z,1.70
2018-12-24T13:42:02.392Z,1.50
2018-12-24T13:45:05.950Z,1.30
2018-12-24T13:48:09.683Z,1.10
2018-12-24T13:51:12.279Z,1.00
2018-12-24T13:54:14.820Z,0.80
2018-12-24T13:57:17.477Z,0.80
2018-12-24T14:00:26.443Z,0.70
2018-12-24T14:03:28.912Z,0.60
2018-12-24T14:06:31.448Z,0.50
2018-12-24T14:09:33.919Z,0.50
2018-12-24T14:12:36.406Z,0.40
2018-12-24T14:15:38.845Z,0.20
2018-12-24T14:18:41.379Z,0.20
2018-12-24T14:21:43.821Z,0.20
2018-12-24T14:24:46.449Z,0.10
2018-12-24T14:27:48.952Z,0.10
2018-12-24T14:30:51.405Z,0.10
2018-12-24T14:33:53.905Z,0.00
2018-12-24T14:36:56.409Z,0.00
2018-12-24T14:39:58.866Z,0.00
2018-12-24T14:43:01.345Z,0.00
2018-12-24T14:46:03.819Z,0.00
2018-12-24T14:49:06.285Z,0.00
2018-12-24T14:52:08.720Z,-0.10
2018-12-24T14:55:11.323Z,-0.10
2018-12-24T14:58:13.793Z,-0.10
2018-12-24T15:01:16.369Z,-0.10
2018-12-24T15:04:18.835Z,-0.10
2018-12-24T15:07:21.305Z,-0.10
2018-12-24T15:10:23.810Z,-0.20
2018-12-24T15:13:26.525Z,-0.20
2018-12-24T15:16:33.979Z,-0.20
2018-12-24T15:19:33.535Z,-0.20
2018-12-24T15:22:36.007Z,-0.20
2018-12-24T15:25:38.672Z,-0.20
2018-12-24T15:28:41.215Z,-0.20
2018-12-24T15:31:43.882Z,-0.10
2018-12-24T15:34:46.325Z,-0.10
2018-12-24T15:37:48.871Z,0.00
2018-12-24T15:40:51.347Z,0.10
2018-12-24T15:43:53.835Z,0.20
2018-12-24T15:46:56.298Z,0.30
2018-12-24T15:49:59.805Z,0.40
2018-12-24T15:53:02.508Z,0.50
2018-12-24T15:56:05.040Z,0.60
2018-12-24T15:59:07.480Z,0.70
2018-12-24T16:02:10.074Z,0.80
2018-12-24T16:05:12.639Z,0.80
2018-12-24T16:08:15.158Z,0.90
2018-12-24T16:11:17.666Z,0.90
2018-12-24T16:14:20.270Z,1.00
2018-12-24T16:17:22.697Z,1.00
2018-12-24T16:20:25.218Z,1.10
2018-12-24T16:23:27.686Z,1.10
2018-12-24T16:26:30.165Z,1.20
2018-12-24T16:29:32.748Z,1.20
2018-12-24T16:32:35.313Z,1.20
2018-12-24T16:35:37.842Z,1.30
2018-12-24T16:38:40.368Z,1.40
2018-12-24T16:41:42.789Z,1.40
2018-12-24T16:44:45.378Z,1.50
2018-12-24T16:47:47.948Z,1.50
2018-12-24T16:50:50.927Z,1.50
2018-12-24T16:53:53.587Z,1.50
2018-12-24T16:56:56.122Z,1.50
2018-12-24T16:59:58.552Z,1.50
2018-12-24T17:03:01.078Z,1.50
2018-12-24T17:06:03.875Z,1.50
2018-12-24T17:09:06.501Z,1.50
2018-12-24T17:12:09.000Z,1.60
2018-12-24T17:15:11.529Z,1.60
2018-12-24T17:18:14.024Z,1.60
2018-12-24T17:21:16.642Z,1.70
2018-12-24T17:24:19.194Z,1.70
2018-12-24T17:27:22.351Z,1.70
2018-12-24T17:30:24.851Z,1.80
2018-12-24T17:33:27.458Z,1.80
2018-12-24T17:36:29.927Z,1.80
2018-12-24T17:39:32.522Z,1.80
2018-12-24T17:42:35.057Z,1.80
2018-12-24T17:45:37.571Z,1.80
2018-12-24T17:48:40.109Z,1.80
2018-12-24T17:51:42.653Z,1.80
2018-12-24T17:54:45.324Z,1.80
2018-12-24T17:57:47.837Z,1.70
2018-12-24T18:00:50.354Z,1.70
2018-12-24T18:03:52.795Z,1.70
2018-12-24T18:06:55.273Z,1.60
2018-12-24T18:09:57.769Z,1.70
2018-12-24T18:13:00.258Z,1.70
2018-12-24T18:16:02.775Z,1.80
2018-12-24T18:19:05.424Z,1.80
2018-12-24T18:22:08.009Z,1.90
2018-12-24T18:25:10.510Z,2.00
2018-12-24T18:28:12.961Z,2.10
2018-12-24T18:31:19.893Z,2.20
2018-12-24T18:34:19.810Z,2.30
2018-12-24T18:37:22.325Z,2.40
2018-12-24T18:40:24.878Z,2.40
2018-12-24T18:43:27.373Z,2.50
2018-12-24T18:46:29.907Z,2.60
2018-12-24T18:49:32.383Z,2.60
2018-12-24T18:52:35.320Z,2.60
2018-12-24T18:55:37.761Z,2.60
2018-12-24T18:58:40.247Z,2.60
2018-12-24T19:01:42.679Z,2.70
2018-12-24T19:04:45.180Z,2.70
2018-12-24T19:07:47.887Z,2.80
2018-12-24T19:10:50.498Z,2.80
2018-12-24T19:13:52.996Z,2.70
2018-12-24T19:16:55.594Z,2.70
2018-12-24T19:19:58.118Z,2.80
2018-12-24T19:23:00.726Z,2.80
2018-12-24T19:26:03.204Z,2.90
2018-12-24T19:29:05.728Z,2.90
2018-12-24T19:32:08.157Z,3.00
2018-12-24T19:35:10.840Z,3.00
2018-12-24T19:38:13.342Z,3.10
2018-12-24T19:41:15.840Z,3.10
2018-12-24T19:44:18.284Z,3.10
2018-12-24T19:47:20.770Z,3.20
2018-12-24T19:50:23.259Z,3.30
2018-12-24T19:53:25.743Z,3.30
2018-12-24T19:56:28.282Z,3.40
2018-12-24T19:59:30.755Z,3.40
2018-12-24T20:02:33.262Z,3.40
2018-12-24T20:05:35.938Z,3.50
2018-12-24T20:08:38.559Z,3.50
2018-12-24T20:11:40.979Z,3.60
2018-12-24T20:14:43.518Z,3.60
2018-12-24T20:17:46.083Z,3.70
2018-12-24T20:20:48.667Z,3.80
2018-12-24T20:23:51.159Z,3.90
2018-12-24T20:26:53.874Z,4.00
2018-12-24T20:29:56.421Z,4.00
2018-12-24T20:32:59.062Z,4.10
2018-12-24T20:36:01.560Z,4.10
2018-12-24T20:39:08.102Z,4.10
2018-12-24T20:42:10.582Z,4.10
2018-12-24T20:45:13.070Z,4.10
2018-12-24T20:48:15.539Z,4.10
2018-12-24T20:51:18.090Z,4.20
2018-12-24T20:54:20.655Z,4.20
2018-12-24T20:57:23.453Z,4.30
2018-12-24T21:00:35.541Z,4.40
2018-12-24T21:03:38.074Z,4.50
2018-12-24T21:06:40.630Z,4.50
2018-12-24T21:09:43.184Z,4.60
2018-12-24T21:12:45.648Z,4.50
2018-12-24T21:15:48.124Z,4.50
2018-12-24T21:18:50.572Z,4.50
2018-12-24T21:21:53.190Z,4.50
2018-12-24T21:24:55.764Z,4.50
2018-12-24T21:27:58.250Z,4.60
2018-12-24T21:31:00.703Z,4.60
2018-12-24T21:34:03.192Z,4.60
2018-12-24T21:37:05.650Z,4.50
2018-12-24T21:40:09.256Z,4.50
2018-12-24T21:43:11.684Z,4.50
2018-12-24T21:46:14.143Z,4.50
2018-12-24T21:49:16.619Z,4.50
2018-12-24T21:52:19.267Z,4.50
2018-12-24T21:55:21.712Z,4.60
2018-12-24T21:58:24.399Z,4.60
2018-12-24T22:01:26.999Z,4.60
2018-12-24T22:04:29.472Z,4.60
2018-12-24T22:07:31.945Z,4.70
2018-12-24T22:10:34.419Z,4.70
2018-12-24T22:13:36.879Z,4.70
2018-12-24T22:16:39.381Z,4.70
2018-12-24T22:19:41.824Z,4.90
2018-12-24T22:22:44.370Z,5.00
2018-12-24T22:25:46.901Z,5.10
2018-12-24T22:28:49.472Z,5.20
2018-12-24T22:31:51.978Z,5.20
2018-12-24T22:34:54.483Z,5.30
2018-12-24T22:37:56.917Z,5.40
2018-12-24T22:40:59.414Z,5.50
2018-12-24T22:44:01.875Z,5.50
2018-12-24T22:47:04.391Z,5.60
2018-12-24T22:50:06.860Z,5.70
2018-12-24T22:53:09.337Z,5.70
2018-12-24T22:56:11.819Z,5.70
2018-12-24T22:59:14.308Z,5.80
2018-12-24T23:02:16.804Z,5.80
2018-12-24T23:05:19.276Z,5.80
2018-12-24T23:08:21.752Z,5.80
2018-12-24T23:11:24.312Z,5.90
2018-12-24T23:14:26.770Z,5.90
2018-12-24T23:17:29.200Z,5.90
2018-12-24T23:20:31.905Z,5.90
2018-12-24T23:23:34.394Z,6.00
2018-12-24T23:26:36.855Z,6.00
2018-12-24T23:29:39.545Z,6.00
2018-12-24T23:32:42.046Z,6.20
2018-12-24T23:35:44.559Z,6.20
2018-12-24T23:38:47.080Z,6.30
2018-12-24T23:41:49.555Z,6.30
2018-12-24T23:44:52.029Z,6.20
2018-12-24T23:47:54.472Z,6.30
2018-12-24T23:50:56.934Z,6.30
2018-12-24T23:54:00.379Z,6.30
2018-12-24T23:57:02.875Z,6.30
